West Jefferson, Ohio
Current Conditions -  °F | °C
As of 12:55 AM on Wednesday 22 Oct 2014 (Local Time) from KTZR Reporting Station
Overcast Overcast  
Wind Chill:   Ceiling: 1400
Heat Index:   Visibility: 10mi
Dew Point:   Wind: 9mph
Humidity: 88%   Direction: 330°NNW
Pressure: 30.16"   Gusts: NA
Location:  39.94°N, 83.27°W
Report Text: KTZR 220455Z AUTO 33008KT 10SM OVC014 07/05 A3016 RMK AO2 T00660047
Loading
Personal Weather Stations






























Interactive Weather Map
Tropical Storm Tracking
New forecast layout! Learn more

10-Day Weather Forecast

Advertisements
Track Severe Weather on mobile